sensor_id;sensor_type;location;lat;lon;timestamp;P1;durP1;ratioP1;P2;durP2;ratioP2
14040;SDS011;7095;51.388;6.196;2023-05-10T00:02:38;42.17;;;23.07;;
14040;SDS011;7095;51.388;6.196;2023-05-10T00:05:10;43.63;;;22.40;;
14040;SDS011;7095;51.388;6.196;2023-05-10T00:07:39;51.23;;;23.80;;
14040;SDS011;7095;51.388;6.196;2023-05-10T00:10:07;39.67;;;23.20;;
14040;SDS011;7095;51.388;6.196;2023-05-10T00:12:37;52.83;;;25.87;;
14040;SDS011;7095;51.388;6.196;2023-05-10T00:15:06;49.83;;;24.60;;
14040;SDS011;7095;51.388;6.196;2023-05-10T00:17:35;46.03;;;22.97;;
14040;SDS011;7095;51.388;6.196;2023-05-10T00:20:04;47.10;;;22.83;;
14040;SDS011;7095;51.388;6.196;2023-05-10T00:22:35;43.83;;;22.60;;
14040;SDS011;7095;51.388;6.196;2023-05-10T00:25:04;39.47;;;21.53;;
14040;SDS011;7095;51.388;6.196;2023-05-10T00:27:33;33.33;;;18.83;;
14040;SDS011;7095;51.388;6.196;2023-05-10T00:30:02;41.27;;;20.27;;
14040;SDS011;7095;51.388;6.196;2023-05-10T00:32:31;40.37;;;20.23;;
14040;SDS011;7095;51.388;6.196;2023-05-10T00:34:59;36.07;;;19.80;;
14040;SDS011;7095;51.388;6.196;2023-05-10T00:37:28;33.93;;;19.43;;
14040;SDS011;7095;51.388;6.196;2023-05-10T00:39:58;32.40;;;18.73;;
14040;SDS011;7095;51.388;6.196;2023-05-10T00:42:26;33.97;;;18.90;;
14040;SDS011;7095;51.388;6.196;2023-05-10T00:44:55;35.87;;;18.47;;
14040;SDS011;7095;51.388;6.196;2023-05-10T00:47:24;33.17;;;19.00;;
14040;SDS011;7095;51.388;6.196;2023-05-10T00:49:53;35.20;;;18.77;;
14040;SDS011;7095;51.388;6.196;2023-05-10T00:52:22;37.57;;;18.63;;
14040;SDS011;7095;51.388;6.196;2023-05-10T00:54:51;31.40;;;18.27;;
14040;SDS011;7095;51.388;6.196;2023-05-10T00:57:22;32.73;;;17.10;;
14040;SDS011;7095;51.388;6.196;2023-05-10T00:59:50;29.43;;;17.40;;
14040;SDS011;7095;51.388;6.196;2023-05-10T01:02:20;30.93;;;16.60;;
14040;SDS011;7095;51.388;6.196;2023-05-10T01:04:49;28.17;;;16.57;;
14040;SDS011;7095;51.388;6.196;2023-05-10T01:07:18;27.00;;;16.37;;
14040;SDS011;7095;51.388;6.196;2023-05-10T01:09:47;22.67;;;14.17;;
14040;SDS011;7095;51.388;6.196;2023-05-10T01:12:16;25.87;;;14.57;;
14040;SDS011;7095;51.388;6.196;2023-05-10T01:14:46;24.80;;;14.27;;
14040;SDS011;7095;51.388;6.196;2023-05-10T01:17:15;26.20;;;14.17;;
14040;SDS011;7095;51.388;6.196;2023-05-10T01:19:45;24.13;;;13.87;;
14040;SDS011;7095;51.388;6.196;2023-05-10T01:22:17;25.47;;;13.60;;
14040;SDS011;7095;51.388;6.196;2023-05-10T01:25:11;26.67;;;14.03;;
14040;SDS011;7095;51.388;6.196;2023-05-10T01:34:08;22.17;;;13.17;;
14040;SDS011;7095;51.388;6.196;2023-05-10T01:36:43;24.80;;;14.10;;
14040;SDS011;7095;51.388;6.196;2023-05-10T01:39:15;23.80;;;14.30;;
14040;SDS011;7095;51.388;6.196;2023-05-10T01:41:52;31.83;;;14.90;;
14040;SDS011;7095;51.388;6.196;2023-05-10T01:44:28;25.43;;;14.10;;
14040;SDS011;7095;51.388;6.196;2023-05-10T01:47:04;28.07;;;13.57;;
14040;SDS011;7095;51.388;6.196;2023-05-10T01:49:41;24.27;;;15.00;;
14040;SDS011;7095;51.388;6.196;2023-05-10T01:52:15;28.03;;;14.97;;
14040;SDS011;7095;51.388;6.196;2023-05-10T01:54:48;34.30;;;16.90;;
14040;SDS011;7095;51.388;6.196;2023-05-10T01:57:20;32.30;;;16.00;;
14040;SDS011;7095;51.388;6.196;2023-05-10T01:59:53;34.60;;;17.70;;
14040;SDS011;7095;51.388;6.196;2023-05-10T02:02:24;44.37;;;21.13;;
14040;SDS011;7095;51.388;6.196;2023-05-10T02:04:57;44.50;;;22.00;;
14040;SDS011;7095;51.388;6.196;2023-05-10T02:07:27;47.57;;;22.73;;
14040;SDS011;7095;51.388;6.196;2023-05-10T02:09:56;54.73;;;26.37;;
14040;SDS011;7095;51.388;6.196;2023-05-10T02:12:26;48.03;;;23.60;;
14040;SDS011;7095;51.388;6.196;2023-05-10T02:14:57;49.77;;;24.47;;
14040;SDS011;7095;51.388;6.196;2023-05-10T02:17:28;47.87;;;23.90;;
14040;SDS011;7095;51.388;6.196;2023-05-10T02:20:02;43.53;;;22.70;;
14040;SDS011;7095;51.388;6.196;2023-05-10T02:22:34;55.63;;;24.27;;
14040;SDS011;7095;51.388;6.196;2023-05-10T02:25:05;51.87;;;23.67;;
14040;SDS011;7095;51.388;6.196;2023-05-10T02:27:36;52.57;;;25.00;;
14040;SDS011;7095;51.388;6.196;2023-05-10T02:30:07;53.40;;;24.47;;
14040;SDS011;7095;51.388;6.196;2023-05-10T02:32:37;52.40;;;24.27;;
14040;SDS011;7095;51.388;6.196;2023-05-10T02:35:08;48.47;;;24.13;;
14040;SDS011;7095;51.388;6.196;2023-05-10T02:37:39;52.93;;;24.67;;
14040;SDS011;7095;51.388;6.196;2023-05-10T02:40:09;52.73;;;25.50;;
14040;SDS011;7095;51.388;6.196;2023-05-10T02:42:40;48.63;;;24.20;;
14040;SDS011;7095;51.388;6.196;2023-05-10T02:45:11;61.47;;;27.47;;
14040;SDS011;7095;51.388;6.196;2023-05-10T02:47:43;56.60;;;26.40;;
14040;SDS011;7095;51.388;6.196;2023-05-10T02:50:13;56.87;;;27.30;;
14040;SDS011;7095;51.388;6.196;2023-05-10T02:52:44;63.90;;;27.70;;
14040;SDS011;7095;51.388;6.196;2023-05-10T02:55:16;60.43;;;28.27;;
14040;SDS011;7095;51.388;6.196;2023-05-10T02:57:51;67.37;;;28.73;;
14040;SDS011;7095;51.388;6.196;2023-05-10T03:00:22;67.27;;;30.47;;
14040;SDS011;7095;51.388;6.196;2023-05-10T03:02:52;68.33;;;30.27;;
14040;SDS011;7095;51.388;6.196;2023-05-10T03:05:23;75.17;;;34.40;;
14040;SDS011;7095;51.388;6.196;2023-05-10T03:07:52;77.00;;;33.73;;
14040;SDS011;7095;51.388;6.196;2023-05-10T03:10:24;76.03;;;33.80;;
14040;SDS011;7095;51.388;6.196;2023-05-10T03:13:01;80.33;;;34.87;;
14040;SDS011;7095;51.388;6.196;2023-05-10T03:15:37;77.13;;;34.30;;
14040;SDS011;7095;51.388;6.196;2023-05-10T03:18:17;84.53;;;36.17;;
14040;SDS011;7095;51.388;6.196;2023-05-10T03:20:51;85.87;;;36.80;;
14040;SDS011;7095;51.388;6.196;2023-05-10T03:23:26;96.30;;;39.17;;
14040;SDS011;7095;51.388;6.196;2023-05-10T03:25:58;89.23;;;38.87;;
14040;SDS011;7095;51.388;6.196;2023-05-10T03:28:29;90.00;;;39.03;;
14040;SDS011;7095;51.388;6.196;2023-05-10T03:30:59;89.83;;;38.43;;
14040;SDS011;7095;51.388;6.196;2023-05-10T03:33:30;100.70;;;40.67;;
14040;SDS011;7095;51.388;6.196;2023-05-10T03:36:00;99.43;;;42.20;;
14040;SDS011;7095;51.388;6.196;2023-05-10T03:38:29;99.50;;;42.43;;
14040;SDS011;7095;51.388;6.196;2023-05-10T03:40:58;103.93;;;43.77;;
14040;SDS011;7095;51.388;6.196;2023-05-10T03:43:27;105.33;;;43.60;;
14040;SDS011;7095;51.388;6.196;2023-05-10T03:45:55;94.07;;;41.77;;
14040;SDS011;7095;51.388;6.196;2023-05-10T03:48:24;104.43;;;44.20;;
14040;SDS011;7095;51.388;6.196;2023-05-10T03:50:52;104.53;;;43.40;;
14040;SDS011;7095;51.388;6.196;2023-05-10T03:53:22;102.73;;;43.77;;
14040;SDS011;7095;51.388;6.196;2023-05-10T03:55:51;104.27;;;44.77;;
14040;SDS011;7095;51.388;6.196;2023-05-10T03:58:19;103.77;;;44.00;;
14040;SDS011;7095;51.388;6.196;2023-05-10T04:00:48;105.50;;;45.93;;
14040;SDS011;7095;51.388;6.196;2023-05-10T04:03:17;111.13;;;45.80;;
14040;SDS011;7095;51.388;6.196;2023-05-10T04:05:47;104.20;;;45.67;;
14040;SDS011;7095;51.388;6.196;2023-05-10T04:08:15;101.27;;;44.73;;
14040;SDS011;7095;51.388;6.196;2023-05-10T04:10:45;99.63;;;44.27;;
14040;SDS011;7095;51.388;6.196;2023-05-10T04:13:14;101.00;;;45.20;;
14040;SDS011;7095;51.388;6.196;2023-05-10T04:15:43;108.33;;;46.00;;
14040;SDS011;7095;51.388;6.196;2023-05-10T04:18:11;101.53;;;44.73;;
14040;SDS011;7095;51.388;6.196;2023-05-10T04:20:41;95.40;;;44.17;;
14040;SDS011;7095;51.388;6.196;2023-05-10T04:23:09;103.13;;;45.37;;
14040;SDS011;7095;51.388;6.196;2023-05-10T04:25:38;108.43;;;45.53;;
14040;SDS011;7095;51.388;6.196;2023-05-10T04:28:08;92.20;;;44.40;;
14040;SDS011;7095;51.388;6.196;2023-05-10T04:30:38;107.90;;;47.03;;
14040;SDS011;7095;51.388;6.196;2023-05-10T04:33:07;115.33;;;48.50;;
14040;SDS011;7095;51.388;6.196;2023-05-10T04:35:35;111.27;;;47.27;;
14040;SDS011;7095;51.388;6.196;2023-05-10T04:38:04;117.83;;;48.97;;
14040;SDS011;7095;51.388;6.196;2023-05-10T04:40:32;131.10;;;49.07;;
14040;SDS011;7095;51.388;6.196;2023-05-10T04:43:01;121.33;;;48.03;;
14040;SDS011;7095;51.388;6.196;2023-05-10T04:45:31;118.30;;;49.57;;
14040;SDS011;7095;51.388;6.196;2023-05-10T04:48:00;136.10;;;49.63;;
14040;SDS011;7095;51.388;6.196;2023-05-10T04:50:28;126.63;;;49.93;;
14040;SDS011;7095;51.388;6.196;2023-05-10T04:52:57;127.50;;;50.57;;
14040;SDS011;7095;51.388;6.196;2023-05-10T04:55:26;121.70;;;48.43;;
14040;SDS011;7095;51.388;6.196;2023-05-10T04:57:54;129.80;;;51.40;;
14040;SDS011;7095;51.388;6.196;2023-05-10T05:00:23;137.40;;;50.77;;
14040;SDS011;7095;51.388;6.196;2023-05-10T05:02:54;132.00;;;50.73;;
14040;SDS011;7095;51.388;6.196;2023-05-10T05:05:22;133.17;;;51.43;;
14040;SDS011;7095;51.388;6.196;2023-05-10T05:07:51;135.37;;;51.10;;
14040;SDS011;7095;51.388;6.196;2023-05-10T05:10:20;137.03;;;51.43;;
14040;SDS011;7095;51.388;6.196;2023-05-10T05:12:48;124.57;;;49.07;;
14040;SDS011;7095;51.388;6.196;2023-05-10T05:15:17;129.20;;;50.47;;
14040;SDS011;7095;51.388;6.196;2023-05-10T05:17:46;125.37;;;48.00;;
14040;SDS011;7095;51.388;6.196;2023-05-10T05:20:16;125.83;;;48.33;;
14040;SDS011;7095;51.388;6.196;2023-05-10T05:22:46;126.20;;;49.07;;
14040;SDS011;7095;51.388;6.196;2023-05-10T05:25:14;123.60;;;49.90;;
14040;SDS011;7095;51.388;6.196;2023-05-10T05:27:44;114.87;;;47.23;;
14040;SDS011;7095;51.388;6.196;2023-05-10T05:30:12;126.97;;;50.23;;
14040;SDS011;7095;51.388;6.196;2023-05-10T05:32:41;113.97;;;48.93;;
14040;SDS011;7095;51.388;6.196;2023-05-10T05:35:10;112.90;;;46.63;;
14040;SDS011;7095;51.388;6.196;2023-05-10T05:37:40;115.87;;;47.77;;
14040;SDS011;7095;51.388;6.196;2023-05-10T05:40:11;118.37;;;46.93;;
14040;SDS011;7095;51.388;6.196;2023-05-10T05:42:41;129.60;;;47.57;;
14040;SDS011;7095;51.388;6.196;2023-05-10T05:45:10;126.93;;;46.63;;
14040;SDS011;7095;51.388;6.196;2023-05-10T05:47:41;129.67;;;47.70;;
14040;SDS011;7095;51.388;6.196;2023-05-10T05:50:10;136.90;;;48.77;;
14040;SDS011;7095;51.388;6.196;2023-05-10T05:52:41;129.87;;;49.90;;
14040;SDS011;7095;51.388;6.196;2023-05-10T05:55:10;131.07;;;48.83;;
14040;SDS011;7095;51.388;6.196;2023-05-10T05:57:39;124.10;;;47.00;;
14040;SDS011;7095;51.388;6.196;2023-05-10T06:00:08;138.47;;;49.77;;
14040;SDS011;7095;51.388;6.196;2023-05-10T06:02:40;134.93;;;49.37;;
14040;SDS011;7095;51.388;6.196;2023-05-10T06:05:09;137.97;;;49.33;;
14040;SDS011;7095;51.388;6.196;2023-05-10T06:07:37;131.13;;;49.93;;
14040;SDS011;7095;51.388;6.196;2023-05-10T06:10:10;121.70;;;48.07;;
14040;SDS011;7095;51.388;6.196;2023-05-10T06:12:39;136.40;;;49.97;;
14040;SDS011;7095;51.388;6.196;2023-05-10T06:15:08;132.00;;;49.00;;
14040;SDS011;7095;51.388;6.196;2023-05-10T06:17:37;128.70;;;50.17;;
14040;SDS011;7095;51.388;6.196;2023-05-10T06:20:07;131.27;;;49.83;;
14040;SDS011;7095;51.388;6.196;2023-05-10T06:22:37;134.70;;;51.30;;
14040;SDS011;7095;51.388;6.196;2023-05-10T06:25:06;134.57;;;51.27;;
14040;SDS011;7095;51.388;6.196;2023-05-10T06:27:37;126.27;;;50.53;;
14040;SDS011;7095;51.388;6.196;2023-05-10T06:30:06;134.37;;;49.67;;
14040;SDS011;7095;51.388;6.196;2023-05-10T06:32:39;129.67;;;50.37;;
14040;SDS011;7095;51.388;6.196;2023-05-10T06:35:08;130.00;;;48.57;;
14040;SDS011;7095;51.388;6.196;2023-05-10T06:37:37;129.07;;;48.70;;
14040;SDS011;7095;51.388;6.196;2023-05-10T06:40:06;123.87;;;47.80;;
14040;SDS011;7095;51.388;6.196;2023-05-10T06:42:37;119.87;;;47.33;;
14040;SDS011;7095;51.388;6.196;2023-05-10T06:45:06;118.40;;;47.60;;
14040;SDS011;7095;51.388;6.196;2023-05-10T06:47:35;120.40;;;47.40;;
14040;SDS011;7095;51.388;6.196;2023-05-10T06:50:05;115.17;;;46.20;;
14040;SDS011;7095;51.388;6.196;2023-05-10T06:52:35;109.63;;;44.63;;
14040;SDS011;7095;51.388;6.196;2023-05-10T06:55:04;114.00;;;46.90;;
14040;SDS011;7095;51.388;6.196;2023-05-10T06:57:33;102.00;;;43.17;;
14040;SDS011;7095;51.388;6.196;2023-05-10T07:00:04;100.93;;;43.93;;
14040;SDS011;7095;51.388;6.196;2023-05-10T07:02:34;95.97;;;43.40;;
14040;SDS011;7095;51.388;6.196;2023-05-10T07:05:02;94.87;;;42.93;;
14040;SDS011;7095;51.388;6.196;2023-05-10T07:07:31;95.40;;;43.80;;
14040;SDS011;7095;51.388;6.196;2023-05-10T07:10:00;89.20;;;41.97;;
14040;SDS011;7095;51.388;6.196;2023-05-10T07:12:29;95.47;;;43.20;;
14040;SDS011;7095;51.388;6.196;2023-05-10T07:14:58;79.13;;;41.13;;
14040;SDS011;7095;51.388;6.196;2023-05-10T07:17:28;83.33;;;42.10;;
14040;SDS011;7095;51.388;6.196;2023-05-10T07:19:58;79.17;;;40.30;;
14040;SDS011;7095;51.388;6.196;2023-05-10T07:22:28;70.93;;;39.73;;
14040;SDS011;7095;51.388;6.196;2023-05-10T07:24:56;70.60;;;37.50;;
14040;SDS011;7095;51.388;6.196;2023-05-10T07:27:25;69.90;;;39.27;;
14040;SDS011;7095;51.388;6.196;2023-05-10T07:29:54;66.73;;;36.83;;
14040;SDS011;7095;51.388;6.196;2023-05-10T07:32:23;60.83;;;35.50;;
14040;SDS011;7095;51.388;6.196;2023-05-10T07:34:54;63.40;;;37.50;;
14040;SDS011;7095;51.388;6.196;2023-05-10T07:37:23;57.90;;;36.40;;
14040;SDS011;7095;51.388;6.196;2023-05-10T07:39:55;64.80;;;38.23;;
14040;SDS011;7095;51.388;6.196;2023-05-10T07:42:24;59.87;;;35.60;;
14040;SDS011;7095;51.388;6.196;2023-05-10T07:44:53;53.87;;;34.27;;
14040;SDS011;7095;51.388;6.196;2023-05-10T07:47:22;52.17;;;34.50;;
14040;SDS011;7095;51.388;6.196;2023-05-10T07:49:52;44.67;;;30.37;;
14040;SDS011;7095;51.388;6.196;2023-05-10T07:52:22;41.20;;;29.63;;
14040;SDS011;7095;51.388;6.196;2023-05-10T07:54:50;40.37;;;27.67;;
14040;SDS011;7095;51.388;6.196;2023-05-10T07:57:19;41.87;;;28.17;;
14040;SDS011;7095;51.388;6.196;2023-05-10T07:59:47;43.53;;;27.63;;
14040;SDS011;7095;51.388;6.196;2023-05-10T08:02:16;38.27;;;26.87;;
14040;SDS011;7095;51.388;6.196;2023-05-10T08:04:45;40.87;;;28.10;;
14040;SDS011;7095;51.388;6.196;2023-05-10T08:07:15;40.10;;;26.83;;
14040;SDS011;7095;51.388;6.196;2023-05-10T08:09:43;41.53;;;26.90;;
14040;SDS011;7095;51.388;6.196;2023-05-10T08:12:12;43.53;;;26.33;;
14040;SDS011;7095;51.388;6.196;2023-05-10T08:14:41;38.77;;;27.70;;
14040;SDS011;7095;51.388;6.196;2023-05-10T08:17:09;41.87;;;27.60;;
14040;SDS011;7095;51.388;6.196;2023-05-10T08:19:38;45.57;;;27.83;;
14040;SDS011;7095;51.388;6.196;2023-05-10T08:22:07;42.60;;;27.37;;
14040;SDS011;7095;51.388;6.196;2023-05-10T08:24:37;40.90;;;27.33;;
14040;SDS011;7095;51.388;6.196;2023-05-10T08:27:05;44.27;;;28.70;;
14040;SDS011;7095;51.388;6.196;2023-05-10T08:29:34;43.20;;;28.07;;
14040;SDS011;7095;51.388;6.196;2023-05-10T08:32:15;42.80;;;26.70;;
14040;SDS011;7095;51.388;6.196;2023-05-10T08:34:44;42.47;;;27.67;;
14040;SDS011;7095;51.388;6.196;2023-05-10T08:37:13;41.10;;;28.00;;
14040;SDS011;7095;51.388;6.196;2023-05-10T08:39:43;41.20;;;27.87;;
14040;SDS011;7095;51.388;6.196;2023-05-10T08:42:12;41.03;;;27.47;;
14040;SDS011;7095;51.388;6.196;2023-05-10T08:44:47;48.80;;;29.13;;
14040;SDS011;7095;51.388;6.196;2023-05-10T08:47:16;43.80;;;28.60;;
14040;SDS011;7095;51.388;6.196;2023-05-10T08:49:47;38.97;;;27.30;;
14040;SDS011;7095;51.388;6.196;2023-05-10T08:52:17;44.73;;;29.60;;
14040;SDS011;7095;51.388;6.196;2023-05-10T08:54:48;43.20;;;28.50;;
14040;SDS011;7095;51.388;6.196;2023-05-10T08:57:17;45.57;;;28.37;;
14040;SDS011;7095;51.388;6.196;2023-05-10T08:59:47;38.27;;;26.70;;
14040;SDS011;7095;51.388;6.196;2023-05-10T09:02:16;41.07;;;27.37;;
14040;SDS011;7095;51.388;6.196;2023-05-10T09:04:46;34.53;;;25.00;;
14040;SDS011;7095;51.388;6.196;2023-05-10T09:07:16;42.07;;;27.93;;
14040;SDS011;7095;51.388;6.196;2023-05-10T09:09:45;46.20;;;29.60;;
14040;SDS011;7095;51.388;6.196;2023-05-10T09:12:15;37.70;;;27.37;;
14040;SDS011;7095;51.388;6.196;2023-05-10T09:14:44;38.33;;;26.80;;
14040;SDS011;7095;51.388;6.196;2023-05-10T09:17:13;39.40;;;27.67;;
14040;SDS011;7095;51.388;6.196;2023-05-10T09:19:44;42.63;;;27.87;;
14040;SDS011;7095;51.388;6.196;2023-05-10T09:22:13;37.57;;;26.87;;
14040;SDS011;7095;51.388;6.196;2023-05-10T09:24:42;41.93;;;26.60;;
14040;SDS011;7095;51.388;6.196;2023-05-10T09:27:12;36.97;;;26.80;;
14040;SDS011;7095;51.388;6.196;2023-05-10T09:29:42;34.53;;;25.57;;
14040;SDS011;7095;51.388;6.196;2023-05-10T09:32:11;39.83;;;25.40;;
14040;SDS011;7095;51.388;6.196;2023-05-10T09:34:41;36.23;;;26.17;;
14040;SDS011;7095;51.388;6.196;2023-05-10T09:37:10;36.53;;;24.87;;
14040;SDS011;7095;51.388;6.196;2023-05-10T09:39:38;31.83;;;22.80;;
14040;SDS011;7095;51.388;6.196;2023-05-10T09:42:08;33.03;;;21.10;;
14040;SDS011;7095;51.388;6.196;2023-05-10T09:44:38;31.70;;;21.97;;
14040;SDS011;7095;51.388;6.196;2023-05-10T09:47:09;31.40;;;20.90;;
14040;SDS011;7095;51.388;6.196;2023-05-10T09:49:37;28.73;;;20.47;;
14040;SDS011;7095;51.388;6.196;2023-05-10T09:52:07;31.33;;;20.87;;
14040;SDS011;7095;51.388;6.196;2023-05-10T09:54:36;30.33;;;21.20;;
14040;SDS011;7095;51.388;6.196;2023-05-10T09:57:04;28.07;;;21.70;;
14040;SDS011;7095;51.388;6.196;2023-05-10T09:59:33;29.40;;;20.47;;
14040;SDS011;7095;51.388;6.196;2023-05-10T10:02:02;30.93;;;21.20;;
14040;SDS011;7095;51.388;6.196;2023-05-10T10:04:37;30.10;;;20.33;;
14040;SDS011;7095;51.388;6.196;2023-05-10T10:07:07;28.10;;;20.23;;
14040;SDS011;7095;51.388;6.196;2023-05-10T10:09:36;28.90;;;19.43;;
14040;SDS011;7095;51.388;6.196;2023-05-10T10:12:06;25.70;;;17.53;;
14040;SDS011;7095;51.388;6.196;2023-05-10T10:14:35;26.53;;;17.40;;
14040;SDS011;7095;51.388;6.196;2023-05-10T10:17:04;26.43;;;19.30;;
14040;SDS011;7095;51.388;6.196;2023-05-10T10:19:36;21.83;;;17.13;;
14040;SDS011;7095;51.388;6.196;2023-05-10T10:22:05;25.50;;;19.30;;
14040;SDS011;7095;51.388;6.196;2023-05-10T10:24:34;26.43;;;20.90;;
14040;SDS011;7095;51.388;6.196;2023-05-10T10:27:06;30.67;;;20.33;;
14040;SDS011;7095;51.388;6.196;2023-05-10T10:29:41;26.30;;;21.47;;
14040;SDS011;7095;51.388;6.196;2023-05-10T10:32:19;29.60;;;23.30;;
14040;SDS011;7095;51.388;6.196;2023-05-10T10:34:55;34.60;;;23.27;;
14040;SDS011;7095;51.388;6.196;2023-05-10T10:40:25;29.47;;;22.60;;
14040;SDS011;7095;51.388;6.196;2023-05-10T10:42:55;30.03;;;22.30;;
14040;SDS011;7095;51.388;6.196;2023-05-10T10:45:25;30.43;;;22.23;;
14040;SDS011;7095;51.388;6.196;2023-05-10T10:51:04;24.00;;;19.80;;
14040;SDS011;7095;51.388;6.196;2023-05-10T10:53:34;24.10;;;18.63;;
14040;SDS011;7095;51.388;6.196;2023-05-10T10:56:06;19.70;;;17.43;;
14040;SDS011;7095;51.388;6.196;2023-05-10T10:58:37;22.20;;;17.13;;
14040;SDS011;7095;51.388;6.196;2023-05-10T11:01:16;21.17;;;15.47;;
14040;SDS011;7095;51.388;6.196;2023-05-10T11:06:50;19.43;;;14.07;;
14040;SDS011;7095;51.388;6.196;2023-05-10T11:09:18;15.83;;;13.63;;
14040;SDS011;7095;51.388;6.196;2023-05-10T11:11:51;17.50;;;12.40;;
14040;SDS011;7095;51.388;6.196;2023-05-10T11:14:22;16.57;;;12.57;;
14040;SDS011;7095;51.388;6.196;2023-05-10T11:16:52;15.63;;;12.80;;
14040;SDS011;7095;51.388;6.196;2023-05-10T11:19:21;14.10;;;11.97;;
14040;SDS011;7095;51.388;6.196;2023-05-10T11:24:56;12.67;;;10.90;;
14040;SDS011;7095;51.388;6.196;2023-05-10T11:27:26;14.77;;;11.57;;
14040;SDS011;7095;51.388;6.196;2023-05-10T11:29:54;21.30;;;13.07;;
14040;SDS011;7095;51.388;6.196;2023-05-10T11:32:23;16.00;;;13.43;;
14040;SDS011;7095;51.388;6.196;2023-05-10T11:34:52;18.07;;;14.47;;
14040;SDS011;7095;51.388;6.196;2023-05-10T11:37:22;19.93;;;14.60;;
14040;SDS011;7095;51.388;6.196;2023-05-10T11:39:51;19.03;;;15.83;;
14040;SDS011;7095;51.388;6.196;2023-05-10T11:42:22;18.50;;;16.10;;
14040;SDS011;7095;51.388;6.196;2023-05-10T11:44:51;20.97;;;18.37;;
14040;SDS011;7095;51.388;6.196;2023-05-10T11:47:20;22.07;;;19.57;;
14040;SDS011;7095;51.388;6.196;2023-05-10T11:49:49;21.23;;;18.57;;
14040;SDS011;7095;51.388;6.196;2023-05-10T11:52:19;19.40;;;17.50;;
14040;SDS011;7095;51.388;6.196;2023-05-10T11:54:52;20.63;;;17.47;;
14040;SDS011;7095;51.388;6.196;2023-05-10T11:57:25;19.63;;;15.10;;
14040;SDS011;7095;51.388;6.196;2023-05-10T11:59:56;18.20;;;16.17;;
14040;SDS011;7095;51.388;6.196;2023-05-10T12:02:25;18.07;;;15.37;;
14040;SDS011;7095;51.388;6.196;2023-05-10T12:04:54;21.20;;;16.33;;
14040;SDS011;7095;51.388;6.196;2023-05-10T12:07:25;21.07;;;16.50;;
14040;SDS011;7095;51.388;6.196;2023-05-10T12:10:07;19.60;;;17.40;;
14040;SDS011;7095;51.388;6.196;2023-05-10T12:12:37;24.43;;;19.40;;
14040;SDS011;7095;51.388;6.196;2023-05-10T12:15:12;21.50;;;19.20;;
14040;SDS011;7095;51.388;6.196;2023-05-10T12:17:46;23.67;;;20.33;;
14040;SDS011;7095;51.388;6.196;2023-05-10T12:20:16;27.87;;;22.87;;
14040;SDS011;7095;51.388;6.196;2023-05-10T12:22:47;23.90;;;21.37;;
14040;SDS011;7095;51.388;6.196;2023-05-10T12:25:20;25.73;;;23.03;;
14040;SDS011;7095;51.388;6.196;2023-05-10T12:27:51;26.30;;;23.60;;
14040;SDS011;7095;51.388;6.196;2023-05-10T12:30:22;25.27;;;22.23;;
14040;SDS011;7095;51.388;6.196;2023-05-10T12:32:52;25.43;;;22.23;;
14040;SDS011;7095;51.388;6.196;2023-05-10T12:35:21;25.63;;;22.80;;
14040;SDS011;7095;51.388;6.196;2023-05-10T12:37:51;27.70;;;22.87;;
14040;SDS011;7095;51.388;6.196;2023-05-10T12:40:21;25.70;;;21.77;;
14040;SDS011;7095;51.388;6.196;2023-05-10T12:42:50;26.30;;;23.50;;
14040;SDS011;7095;51.388;6.196;2023-05-10T12:45:19;27.53;;;23.40;;
14040;SDS011;7095;51.388;6.196;2023-05-10T12:47:49;24.03;;;20.77;;
14040;SDS011;7095;51.388;6.196;2023-05-10T12:50:17;24.70;;;22.13;;
14040;SDS011;7095;51.388;6.196;2023-05-10T12:52:46;24.37;;;21.73;;
14040;SDS011;7095;51.388;6.196;2023-05-10T12:55:15;27.93;;;22.70;;
14040;SDS011;7095;51.388;6.196;2023-05-10T12:57:45;25.60;;;21.37;;
14040;SDS011;7095;51.388;6.196;2023-05-10T13:00:15;26.10;;;22.50;;
14040;SDS011;7095;51.388;6.196;2023-05-10T13:02:45;24.97;;;20.40;;
14040;SDS011;7095;51.388;6.196;2023-05-10T13:05:13;27.07;;;21.40;;
14040;SDS011;7095;51.388;6.196;2023-05-10T13:07:42;23.60;;;21.00;;
14040;SDS011;7095;51.388;6.196;2023-05-10T13:10:11;24.17;;;21.57;;
14040;SDS011;7095;51.388;6.196;2023-05-10T13:12:41;26.37;;;20.13;;
14040;SDS011;7095;51.388;6.196;2023-05-10T13:15:11;22.27;;;19.97;;
14040;SDS011;7095;51.388;6.196;2023-05-10T13:17:40;20.37;;;18.27;;
14040;SDS011;7095;51.388;6.196;2023-05-10T13:20:10;21.00;;;17.80;;
14040;SDS011;7095;51.388;6.196;2023-05-10T13:22:40;20.03;;;17.93;;
14040;SDS011;7095;51.388;6.196;2023-05-10T13:25:09;19.73;;;17.53;;
14040;SDS011;7095;51.388;6.196;2023-05-10T13:27:39;19.23;;;17.30;;
14040;SDS011;7095;51.388;6.196;2023-05-10T13:30:08;21.17;;;17.37;;
14040;SDS011;7095;51.388;6.196;2023-05-10T13:32:39;18.97;;;17.00;;
14040;SDS011;7095;51.388;6.196;2023-05-10T13:35:08;18.43;;;16.50;;
14040;SDS011;7095;51.388;6.196;2023-05-10T13:37:37;17.87;;;15.90;;
14040;SDS011;7095;51.388;6.196;2023-05-10T13:40:06;18.73;;;16.73;;
14040;SDS011;7095;51.388;6.196;2023-05-10T13:42:35;18.40;;;16.40;;
14040;SDS011;7095;51.388;6.196;2023-05-10T13:45:04;21.93;;;17.37;;
14040;SDS011;7095;51.388;6.196;2023-05-10T13:47:36;19.13;;;17.13;;
14040;SDS011;7095;51.388;6.196;2023-05-10T13:50:05;19.37;;;16.80;;
14040;SDS011;7095;51.388;6.196;2023-05-10T13:52:35;19.37;;;17.17;;
14040;SDS011;7095;51.388;6.196;2023-05-10T13:55:04;21.33;;;17.70;;
14040;SDS011;7095;51.388;6.196;2023-05-10T13:57:33;19.00;;;16.23;;
14040;SDS011;7095;51.388;6.196;2023-05-10T14:00:03;21.90;;;15.87;;
14040;SDS011;7095;51.388;6.196;2023-05-10T14:02:33;10.87;;;9.47;;
14040;SDS011;7095;51.388;6.196;2023-05-10T14:05:04;11.53;;;9.33;;
14040;SDS011;7095;51.388;6.196;2023-05-10T14:07:33;12.83;;;10.03;;
14040;SDS011;7095;51.388;6.196;2023-05-10T14:10:02;10.37;;;9.20;;
14040;SDS011;7095;51.388;6.196;2023-05-10T14:12:31;11.70;;;8.93;;
14040;SDS011;7095;51.388;6.196;2023-05-10T14:15:00;12.87;;;9.13;;
14040;SDS011;7095;51.388;6.196;2023-05-10T14:17:29;9.80;;;8.80;;
14040;SDS011;7095;51.388;6.196;2023-05-10T14:19:57;13.57;;;9.83;;
14040;SDS011;7095;51.388;6.196;2023-05-10T14:22:28;11.47;;;9.80;;
14040;SDS011;7095;51.388;6.196;2023-05-10T14:25:00;11.77;;;10.57;;
14040;SDS011;7095;51.388;6.196;2023-05-10T14:27:29;14.23;;;11.13;;
14040;SDS011;7095;51.388;6.196;2023-05-10T14:29:58;12.53;;;10.83;;
14040;SDS011;7095;51.388;6.196;2023-05-10T14:32:27;17.17;;;11.97;;
14040;SDS011;7095;51.388;6.196;2023-05-10T14:34:55;13.57;;;11.27;;
14040;SDS011;7095;51.388;6.196;2023-05-10T14:37:24;17.93;;;12.90;;
14040;SDS011;7095;51.388;6.196;2023-05-10T14:39:55;14.10;;;12.40;;
14040;SDS011;7095;51.388;6.196;2023-05-10T14:42:23;16.87;;;12.10;;
14040;SDS011;7095;51.388;6.196;2023-05-10T14:44:52;16.67;;;12.20;;
14040;SDS011;7095;51.388;6.196;2023-05-10T14:47:23;14.23;;;12.67;;
14040;SDS011;7095;51.388;6.196;2023-05-10T14:49:52;13.10;;;11.67;;
14040;SDS011;7095;51.388;6.196;2023-05-10T14:52:21;13.17;;;11.73;;
14040;SDS011;7095;51.388;6.196;2023-05-10T14:54:49;14.97;;;11.70;;
14040;SDS011;7095;51.388;6.196;2023-05-10T14:57:19;11.60;;;10.40;;
14040;SDS011;7095;51.388;6.196;2023-05-10T14:59:48;13.83;;;10.70;;
14040;SDS011;7095;51.388;6.196;2023-05-10T15:02:17;11.53;;;9.43;;
14040;SDS011;7095;51.388;6.196;2023-05-10T15:04:46;12.93;;;10.20;;
14040;SDS011;7095;51.388;6.196;2023-05-10T15:07:15;12.33;;;9.43;;